sensor_id;sensor_type;location;lat;lon;timestamp;pressure;altitude;pressure_sealevel;temperature;humidity
21236;BME280;10775;42.678;26.324;2023-04-19T00:01:19;98156.97;;;11.28;100.00
21236;BME280;10775;42.678;26.324;2023-04-19T00:03:45;98156.25;;;11.23;100.00
21236;BME280;10775;42.678;26.324;2023-04-19T00:06:10;98154.59;;;11.21;100.00
21236;BME280;10775;42.678;26.324;2023-04-19T00:08:39;98145.91;;;11.20;100.00
21236;BME280;10775;42.678;26.324;2023-04-19T00:11:06;98150.28;;;11.20;100.00
21236;BME280;10775;42.678;26.324;2023-04-19T00:13:31;98141.75;;;11.13;100.00
21236;BME280;10775;42.678;26.324;2023-04-19T00:15:57;98137.34;;;11.15;100.00
21236;BME280;10775;42.678;26.324;2023-04-19T00:18:22;98136.63;;;11.10;100.00
21236;BME280;10775;42.678;26.324;2023-04-19T00:20:48;98131.72;;;10.99;100.00
21236;BME280;10775;42.678;26.324;2023-04-19T00:23:13;98132.50;;;11.01;100.00
21236;BME280;10775;42.678;26.324;2023-04-19T00:25:39;98129.13;;;10.98;100.00
21236;BME280;10775;42.678;26.324;2023-04-19T00:28:04;98130.81;;;11.00;100.00
21236;BME280;10775;42.678;26.324;2023-04-19T00:30:30;98130.06;;;10.97;100.00
21236;BME280;10775;42.678;26.324;2023-04-19T00:32:55;98125.84;;;10.91;100.00
21236;BME280;10775;42.678;26.324;2023-04-19T00:35:21;98123.28;;;10.90;100.00
21236;BME280;10775;42.678;26.324;2023-04-19T00:37:46;98118.09;;;10.88;100.00
21236;BME280;10775;42.678;26.324;2023-04-19T00:40:12;98123.41;;;10.85;100.00
21236;BME280;10775;42.678;26.324;2023-04-19T00:42:37;98127.59;;;10.91;100.00
21236;BME280;10775;42.678;26.324;2023-04-19T00:45:03;98121.41;;;10.95;100.00
21236;BME280;10775;42.678;26.324;2023-04-19T00:47:29;98122.09;;;11.00;100.00
21236;BME280;10775;42.678;26.324;2023-04-19T00:49:54;98126.31;;;11.04;100.00
21236;BME280;10775;42.678;26.324;2023-04-19T00:52:21;98124.50;;;11.07;100.00
21236;BME280;10775;42.678;26.324;2023-04-19T00:54:47;98126.91;;;11.14;100.00
21236;BME280;10775;42.678;26.324;2023-04-19T00:57:14;98133.47;;;10.99;100.00
21236;BME280;10775;42.678;26.324;2023-04-19T00:59:41;98130.19;;;10.92;100.00
21236;BME280;10775;42.678;26.324;2023-04-19T01:02:08;98123.41;;;10.85;100.00
21236;BME280;10775;42.678;26.324;2023-04-19T01:04:33;98125.84;;;10.91;100.00
21236;BME280;10775;42.678;26.324;2023-04-19T01:07:00;98120.44;;;10.97;100.00
21236;BME280;10775;42.678;26.324;2023-04-19T01:09:27;98122.81;;;11.05;100.00
21236;BME280;10775;42.678;26.324;2023-04-19T01:11:52;98114.91;;;11.06;100.00
21236;BME280;10775;42.678;26.324;2023-04-19T01:14:18;98110.47;;;11.10;100.00
21236;BME280;10775;42.678;26.324;2023-04-19T01:16:43;98110.34;;;11.13;100.00
21236;BME280;10775;42.678;26.324;2023-04-19T01:19:10;98103.34;;;11.14;100.00
21236;BME280;10775;42.678;26.324;2023-04-19T01:21:36;98110.59;;;11.05;100.00
21236;BME280;10775;42.678;26.324;2023-04-19T01:24:03;98116.06;;;10.98;100.00
21236;BME280;10775;42.678;26.324;2023-04-19T01:26:29;98109.91;;;10.99;100.00
21236;BME280;10775;42.678;26.324;2023-04-19T01:28:55;98102.78;;;11.04;100.00
21236;BME280;10775;42.678;26.324;2023-04-19T01:31:20;98107.06;;;11.06;100.00
21236;BME280;10775;42.678;26.324;2023-04-19T01:33:45;98108.69;;;11.10;100.00
21236;BME280;10775;42.678;26.324;2023-04-19T01:36:11;98107.88;;;11.08;100.00
21236;BME280;10775;42.678;26.324;2023-04-19T01:38:37;98095.88;;;11.01;100.00
21236;BME280;10775;42.678;26.324;2023-04-19T01:41:02;98106.09;;;11.09;100.00
21236;BME280;10775;42.678;26.324;2023-04-19T01:43:28;98104.31;;;11.11;100.00
21236;BME280;10775;42.678;26.324;2023-04-19T01:45:53;98102.59;;;11.10;100.00
21236;BME280;10775;42.678;26.324;2023-04-19T01:48:19;98104.41;;;11.08;100.00
21236;BME280;10775;42.678;26.324;2023-04-19T01:50:44;98109.66;;;11.08;100.00
21236;BME280;10775;42.678;26.324;2023-04-19T01:53:09;98106.09;;;11.09;100.00
21236;BME280;10775;42.678;26.324;2023-04-19T01:55:35;98106.94;;;11.11;100.00
21236;BME280;10775;42.678;26.324;2023-04-19T01:58:00;98107.00;;;11.09;100.00
21236;BME280;10775;42.678;26.324;2023-04-19T02:00:26;98099.94;;;11.12;100.00
21236;BME280;10775;42.678;26.324;2023-04-19T02:02:51;98100.88;;;11.09;100.00
21236;BME280;10775;42.678;26.324;2023-04-19T02:05:17;98097.47;;;11.07;100.00
21236;BME280;10775;42.678;26.324;2023-04-19T02:07:42;98095.72;;;11.07;100.00
21236;BME280;10775;42.678;26.324;2023-04-19T02:10:10;98090.59;;;11.04;100.00
21236;BME280;10775;42.678;26.324;2023-04-19T02:12:36;98092.31;;;11.04;100.00
21236;BME280;10775;42.678;26.324;2023-04-19T02:15:03;98094.22;;;10.99;100.00
21236;BME280;10775;42.678;26.324;2023-04-19T02:17:28;98089.94;;;10.96;100.00
21236;BME280;10775;42.678;26.324;2023-04-19T02:19:54;98090.09;;;10.92;100.00
21236;BME280;10775;42.678;26.324;2023-04-19T02:22:19;98084.09;;;10.88;100.00
21236;BME280;10775;42.678;26.324;2023-04-19T02:24:46;98094.63;;;10.86;100.00
21236;BME280;10775;42.678;26.324;2023-04-19T02:27:12;98087.50;;;10.92;100.00
21236;BME280;10775;42.678;26.324;2023-04-19T02:29:38;98088.38;;;10.91;100.00
21236;BME280;10775;42.678;26.324;2023-04-19T02:32:04;98083.22;;;10.89;100.00
21236;BME280;10775;42.678;26.324;2023-04-19T02:34:31;98088.47;;;10.87;100.00
21236;BME280;10775;42.678;26.324;2023-04-19T02:36:57;98086.69;;;10.90;100.00
21236;BME280;10775;42.678;26.324;2023-04-19T02:39:22;98082.28;;;10.90;100.00
21236;BME280;10775;42.678;26.324;2023-04-19T02:41:48;98087.44;;;10.93;100.00
21236;BME280;10775;42.678;26.324;2023-04-19T02:44:14;98085.97;;;10.84;100.00
21236;BME280;10775;42.678;26.324;2023-04-19T02:46:39;98077.53;;;10.75;100.00
21236;BME280;10775;42.678;26.324;2023-04-19T02:49:05;98080.84;;;10.81;100.00
21236;BME280;10775;42.678;26.324;2023-04-19T02:51:30;98079.00;;;10.83;100.00
21236;BME280;10775;42.678;26.324;2023-04-19T02:53:56;98081.00;;;10.75;100.00
21236;BME280;10775;42.678;26.324;2023-04-19T02:56:21;98078.38;;;10.75;100.00
21236;BME280;10775;42.678;26.324;2023-04-19T02:58:47;98081.00;;;10.75;100.00
21236;BME280;10775;42.678;26.324;2023-04-19T03:01:12;98078.25;;;10.80;100.00
21236;BME280;10775;42.678;26.324;2023-04-19T03:03:38;98086.06;;;10.81;100.00
21236;BME280;10775;42.678;26.324;2023-04-19T03:06:04;98085.16;;;10.82;100.00
21236;BME280;10775;42.678;26.324;2023-04-19T03:08:29;98074.69;;;10.82;100.00
21236;BME280;10775;42.678;26.324;2023-04-19T03:10:54;98075.50;;;10.84;100.00
21236;BME280;10775;42.678;26.324;2023-04-19T03:13:20;98074.69;;;10.82;100.00
21236;BME280;10775;42.678;26.324;2023-04-19T03:15:46;98078.97;;;10.85;100.00
21236;BME280;10775;42.678;26.324;2023-04-19T03:18:12;98078.25;;;10.80;100.00
21236;BME280;10775;42.678;26.324;2023-04-19T03:20:37;98082.66;;;10.78;100.00
21236;BME280;10775;42.678;26.324;2023-04-19T03:23:03;98075.59;;;10.81;100.00
21236;BME280;10775;42.678;26.324;2023-04-19T03:25:28;98080.66;;;10.86;100.00
21236;BME280;10775;42.678;26.324;2023-04-19T03:27:55;98079.72;;;10.88;100.00
21236;BME280;10775;42.678;26.324;2023-04-19T03:30:21;98086.78;;;10.86;100.00
21236;BME280;10775;42.678;26.324;2023-04-19T03:32:46;98080.84;;;10.81;100.00
21236;BME280;10775;42.678;26.324;2023-04-19T03:35:12;98085.97;;;10.84;100.00
21236;BME280;10775;42.678;26.324;2023-04-19T03:37:38;98079.06;;;10.82;100.00
21236;BME280;10775;42.678;26.324;2023-04-19T03:40:03;98083.56;;;10.77;100.00
21236;BME280;10775;42.678;26.324;2023-04-19T03:42:29;98084.53;;;10.74;100.00
21236;BME280;10775;42.678;26.324;2023-04-19T03:44:55;98081.22;;;10.68;100.00
21236;BME280;10775;42.678;26.324;2023-04-19T03:47:21;98080.28;;;10.70;100.00
21236;BME280;10775;42.678;26.324;2023-04-19T03:49:46;98080.84;;;10.81;100.00
21236;BME280;10775;42.678;26.324;2023-04-19T03:52:11;98081.38;;;10.91;100.00
21236;BME280;10775;42.678;26.324;2023-04-19T03:54:37;98084.06;;;10.90;100.00
21236;BME280;10775;42.678;26.324;2023-04-19T03:57:02;98083.97;;;10.93;100.00
21236;BME280;10775;42.678;26.324;2023-04-19T03:59:28;98085.59;;;10.97;100.00
21236;BME280;10775;42.678;26.324;2023-04-19T04:01:53;98082.88;;;11.00;100.00
21236;BME280;10775;42.678;26.324;2023-04-19T04:04:19;98080.06;;;11.06;100.00
21236;BME280;10775;42.678;26.324;2023-04-19T04:06:44;98079.22;;;11.05;100.00
21236;BME280;10775;42.678;26.324;2023-04-19T04:09:10;98078.34;;;11.05;100.00
21236;BME280;10775;42.678;26.324;2023-04-19T04:11:35;98075.78;;;11.03;100.00
21236;BME280;10775;42.678;26.324;2023-04-19T04:14:01;98080.16;;;11.03;100.00
21236;BME280;10775;42.678;26.324;2023-04-19T04:16:26;98075.88;;;11.00;100.00
21236;BME280;10775;42.678;26.324;2023-04-19T04:18:51;98074.97;;;11.01;100.00
21236;BME280;10775;42.678;26.324;2023-04-19T04:21:17;98070.31;;;11.11;100.00
21236;BME280;10775;42.678;26.324;2023-04-19T04:23:42;98066.81;;;11.12;100.00
21236;BME280;10775;42.678;26.324;2023-04-19T04:26:08;98074.19;;;10.99;100.00
21236;BME280;10775;42.678;26.324;2023-04-19T04:28:34;98075.31;;;10.91;100.00
21236;BME280;10775;42.678;26.324;2023-04-19T04:30:59;98069.00;;;10.96;100.00
21236;BME280;10775;42.678;26.324;2023-04-19T04:33:26;98071.97;;;10.85;100.00
21236;BME280;10775;42.678;26.324;2023-04-19T04:35:55;98073.28;;;10.99;100.00
21236;BME280;10775;42.678;26.324;2023-04-19T04:38:22;98082.06;;;10.98;100.00
21236;BME280;10775;42.678;26.324;2023-04-19T04:40:54;98069.22;;;10.90;100.00
21236;BME280;10775;42.678;26.324;2023-04-19T04:43:20;98081.72;;;10.80;100.00
21236;BME280;10775;42.678;26.324;2023-04-19T04:45:47;98073.13;;;10.77;100.00
21236;BME280;10775;42.678;26.324;2023-04-19T04:48:13;98085.97;;;10.84;100.00
21236;BME280;10775;42.678;26.324;2023-04-19T04:50:38;98086.56;;;10.93;100.00
21236;BME280;10775;42.678;26.324;2023-04-19T04:53:04;98087.31;;;10.96;100.00
21236;BME280;10775;42.678;26.324;2023-04-19T04:55:30;98091.09;;;11.16;100.00
21236;BME280;10775;42.678;26.324;2023-04-19T04:57:55;98095.50;;;11.14;100.00
21236;BME280;10775;42.678;26.324;2023-04-19T05:00:22;98095.00;;;11.30;100.00
21236;BME280;10775;42.678;26.324;2023-04-19T05:02:47;98095.00;;;11.30;100.00
21236;BME280;10775;42.678;26.324;2023-04-19T05:05:13;98086.81;;;11.40;100.00
21236;BME280;10775;42.678;26.324;2023-04-19T05:07:38;98091.66;;;11.52;100.00
21236;BME280;10775;42.678;26.324;2023-04-19T05:10:05;98083.19;;;11.70;100.00
21236;BME280;10775;42.678;26.324;2023-04-19T05:12:30;98091.44;;;11.85;100.00
21236;BME280;10775;42.678;26.324;2023-04-19T05:14:56;98092.16;;;11.90;100.00
21236;BME280;10775;42.678;26.324;2023-04-19T05:17:21;98089.66;;;11.87;100.00
21236;BME280;10775;42.678;26.324;2023-04-19T05:19:47;98095.81;;;11.84;100.00
21236;BME280;10775;42.678;26.324;2023-04-19T05:22:12;98089.34;;;11.69;100.00
21236;BME280;10775;42.678;26.324;2023-04-19T05:24:37;98092.63;;;11.76;100.00
21236;BME280;10775;42.678;26.324;2023-04-19T05:27:03;98093.66;;;11.70;100.00
21236;BME280;10775;42.678;26.324;2023-04-19T05:29:28;98096.78;;;11.82;100.00
21236;BME280;10775;42.678;26.324;2023-04-19T05:31:54;98098.31;;;11.89;100.00
21236;BME280;10775;42.678;26.324;2023-04-19T05:34:19;98099.78;;;11.96;100.00
21236;BME280;10775;42.678;26.324;2023-04-19T05:36:45;98093.44;;;12.03;100.00
21236;BME280;10775;42.678;26.324;2023-04-19T05:39:10;98095.94;;;12.06;100.00
21236;BME280;10775;42.678;26.324;2023-04-19T05:41:35;98097.25;;;12.20;100.00
21236;BME280;10775;42.678;26.324;2023-04-19T05:44:01;98090.28;;;12.18;100.00
21236;BME280;10775;42.678;26.324;2023-04-19T05:46:26;98091.16;;;11.94;100.00
21236;BME280;10775;42.678;26.324;2023-04-19T05:48:52;98087.25;;;12.06;100.00
21236;BME280;10775;42.678;26.324;2023-04-19T05:51:17;98090.69;;;12.31;100.00
21236;BME280;10775;42.678;26.324;2023-04-19T05:53:44;98091.78;;;12.49;100.00
21236;BME280;10775;42.678;26.324;2023-04-19T05:56:09;98096.22;;;12.47;100.00
21236;BME280;10775;42.678;26.324;2023-04-19T05:58:35;98101.47;;;12.47;100.00
21236;BME280;10775;42.678;26.324;2023-04-19T06:01:01;98102.56;;;12.42;100.00
21236;BME280;10775;42.678;26.324;2023-04-19T06:03:27;98101.28;;;12.28;100.00
21236;BME280;10775;42.678;26.324;2023-04-19T06:05:52;98104.41;;;12.14;100.00
21236;BME280;10775;42.678;26.324;2023-04-19T06:08:18;98108.97;;;12.09;100.00
21236;BME280;10775;42.678;26.324;2023-04-19T06:10:44;98108.53;;;11.43;100.00
21236;BME280;10775;42.678;26.324;2023-04-19T06:13:12;98109.25;;;11.20;100.00
21236;BME280;10775;42.678;26.324;2023-04-19T06:15:38;98113.69;;;11.18;100.00
21236;BME280;10775;42.678;26.324;2023-04-19T06:18:04;98110.13;;;11.21;100.00
21236;BME280;10775;42.678;26.324;2023-04-19T06:20:35;98108.47;;;11.45;100.00
21236;BME280;10775;42.678;26.324;2023-04-19T06:23:01;98105.78;;;11.48;100.00
21236;BME280;10775;42.678;26.324;2023-04-19T06:25:26;98112.81;;;11.46;100.00
21236;BME280;10775;42.678;26.324;2023-04-19T06:27:52;98104.75;;;11.79;100.00
21236;BME280;10775;42.678;26.324;2023-04-19T06:30:17;98107.88;;;11.90;100.00
21236;BME280;10775;42.678;26.324;2023-04-19T06:32:43;98113.06;;;11.65;100.00
21236;BME280;10775;42.678;26.324;2023-04-19T06:35:08;98111.66;;;11.81;100.00
21236;BME280;10775;42.678;26.324;2023-04-19T06:37:34;98116.53;;;11.92;100.00
21236;BME280;10775;42.678;26.324;2023-04-19T06:39:59;98120.69;;;11.99;100.00
21236;BME280;10775;42.678;26.324;2023-04-19T06:42:25;98113.75;;;12.22;100.00
21236;BME280;10775;42.678;26.324;2023-04-19T06:44:51;98115.78;;;12.62;100.00
21236;BME280;10775;42.678;26.324;2023-04-19T06:47:17;98117.94;;;12.98;100.00
21236;BME280;10775;42.678;26.324;2023-04-19T06:49:43;98119.97;;;13.13;100.00
21236;BME280;10775;42.678;26.324;2023-04-19T06:52:09;98120.06;;;12.65;100.00
21236;BME280;10775;42.678;26.324;2023-04-19T06:54:34;98120.69;;;12.71;100.00
21236;BME280;10775;42.678;26.324;2023-04-19T06:57:00;98114.22;;;13.25;100.00
21236;BME280;10775;42.678;26.324;2023-04-19T06:59:26;98115.56;;;13.37;100.00
21236;BME280;10775;42.678;26.324;2023-04-19T07:01:52;98125.56;;;13.27;100.00
21236;BME280;10775;42.678;26.324;2023-04-19T07:04:18;98120.38;;;13.02;100.00
21236;BME280;10775;42.678;26.324;2023-04-19T07:06:47;98122.44;;;12.94;100.00
21236;BME280;10775;42.678;26.324;2023-04-19T07:09:13;98130.44;;;12.91;100.00
21236;BME280;10775;42.678;26.324;2023-04-19T07:11:38;98126.84;;;12.47;100.00
21236;BME280;10775;42.678;26.324;2023-04-19T07:14:04;98127.22;;;12.11;100.00
21236;BME280;10775;42.678;26.324;2023-04-19T07:16:29;98137.56;;;12.40;100.00
21236;BME280;10775;42.678;26.324;2023-04-19T07:18:55;98133.28;;;12.38;100.00
21236;BME280;10775;42.678;26.324;2023-04-19T07:21:21;98135.63;;;12.21;100.00
21236;BME280;10775;42.678;26.324;2023-04-19T07:23:48;98130.50;;;12.17;100.00
21236;BME280;10775;42.678;26.324;2023-04-19T07:26:14;98135.34;;;12.77;100.00
21236;BME280;10775;42.678;26.324;2023-04-19T07:28:39;98127.47;;;12.77;100.00
21236;BME280;10775;42.678;26.324;2023-04-19T07:31:05;98139.06;;;12.71;100.00
21236;BME280;10775;42.678;26.324;2023-04-19T07:33:31;98166.28;;;12.67;97.56
21236;BME280;10775;42.678;26.324;2023-04-19T07:35:56;98128.16;;;12.82;100.00
21236;BME280;10775;42.678;26.324;2023-04-19T07:38:23;98144.03;;;12.79;99.95
21236;BME280;10775;42.678;26.324;2023-04-19T07:40:49;98149.09;;;12.83;100.00
21236;BME280;10775;42.678;26.324;2023-04-19T07:43:14;98150.78;;;13.08;96.75
21236;BME280;10775;42.678;26.324;2023-04-19T07:45:40;98151.34;;;13.40;96.90
21236;BME280;10775;42.678;26.324;2023-04-19T07:48:06;98152.22;;;13.17;94.69
21236;BME280;10775;42.678;26.324;2023-04-19T07:50:33;98156.97;;;13.53;100.00
21236;BME280;10775;42.678;26.324;2023-04-19T07:52:58;98155.34;;;13.26;95.36
21236;BME280;10775;42.678;26.324;2023-04-19T07:55:24;98167.19;;;13.59;100.00
21236;BME280;10775;42.678;26.324;2023-04-19T07:57:49;98163.59;;;13.39;93.00
21236;BME280;10775;42.678;26.324;2023-04-19T08:00:16;98167.16;;;13.15;95.54
21236;BME280;10775;42.678;26.324;2023-04-19T08:02:42;98161.09;;;13.58;100.00
21236;BME280;10775;42.678;26.324;2023-04-19T08:05:09;98152.78;;;13.69;96.23
21236;BME280;10775;42.678;26.324;2023-04-19T08:07:34;98152.50;;;13.75;96.79
21236;BME280;10775;42.678;26.324;2023-04-19T08:10:00;98155.09;;;13.55;100.00
21236;BME280;10775;42.678;26.324;2023-04-19T08:12:25;98160.72;;;13.67;97.58
21236;BME280;10775;42.678;26.324;2023-04-19T08:14:50;98157.75;;;13.33;95.60
21236;BME280;10775;42.678;26.324;2023-04-19T08:17:16;98163.38;;;13.45;100.00
21236;BME280;10775;42.678;26.324;2023-04-19T08:19:45;98160.53;;;13.72;100.00
21236;BME280;10775;42.678;26.324;2023-04-19T08:22:11;98155.25;;;14.14;100.00
21236;BME280;10775;42.678;26.324;2023-04-19T08:24:37;98164.31;;;13.65;92.55
21236;BME280;10775;42.678;26.324;2023-04-19T08:27:02;98163.28;;;13.47;97.45
21236;BME280;10775;42.678;26.324;2023-04-19T08:29:27;98165.13;;;12.99;94.37
21236;BME280;10775;42.678;26.324;2023-04-19T08:31:53;98152.72;;;13.03;94.73
21236;BME280;10775;42.678;26.324;2023-04-19T08:34:18;98163.47;;;12.97;94.38
21236;BME280;10775;42.678;26.324;2023-04-19T08:36:44;98163.75;;;12.66;95.55
21236;BME280;10775;42.678;26.324;2023-04-19T08:39:10;98170.38;;;12.76;97.40
21236;BME280;10775;42.678;26.324;2023-04-19T08:41:37;98172.50;;;12.88;98.55
21236;BME280;10775;42.678;26.324;2023-04-19T08:44:04;98170.19;;;13.04;100.00
21236;BME280;10775;42.678;26.324;2023-04-19T08:46:31;98163.66;;;12.91;97.76
21236;BME280;10775;42.678;26.324;2023-04-19T08:48:58;98175.66;;;12.98;96.01
21236;BME280;10775;42.678;26.324;2023-04-19T08:51:25;98166.66;;;12.81;97.78
21236;BME280;10775;42.678;26.324;2023-04-19T08:53:51;98172.50;;;12.88;97.03
21236;BME280;10775;42.678;26.324;2023-04-19T08:56:16;98173.75;;;12.78;97.59
21236;BME280;10775;42.678;26.324;2023-04-19T08:58:42;98167.84;;;12.73;100.00
21236;BME280;10775;42.678;26.324;2023-04-19T09:01:07;98173.06;;;12.73;98.01
21236;BME280;10775;42.678;26.324;2023-04-19T09:03:33;98166.69;;;12.56;97.87
21236;BME280;10775;42.678;26.324;2023-04-19T09:06:02;98167.34;;;12.38;100.00
21236;BME280;10775;42.678;26.324;2023-04-19T09:08:29;98173.34;;;12.42;98.69
21236;BME280;10775;42.678;26.324;2023-04-19T09:10:59;98159.34;;;12.66;100.00
21236;BME280;10775;42.678;26.324;2023-04-19T09:13:28;98173.56;;;12.60;97.97
21236;BME280;10775;42.678;26.324;2023-04-19T09:15:54;98174.97;;;12.93;100.00
21236;BME280;10775;42.678;26.324;2023-04-19T09:18:22;98185.53;;;13.38;100.00
21236;BME280;10775;42.678;26.324;2023-04-19T09:20:49;98179.72;;;13.30;100.00
21236;BME280;10775;42.678;26.324;2023-04-19T09:23:16;98177.81;;;13.10;100.00
21236;BME280;10775;42.678;26.324;2023-04-19T09:25:55;98173.41;;;13.34;100.00
21236;BME280;10775;42.678;26.324;2023-04-19T09:28:22;98169.41;;;13.47;100.00
21236;BME280;10775;42.678;26.324;2023-04-19T09:30:48;98181.16;;;13.14;99.31
21236;BME280;10775;42.678;26.324;2023-04-19T09:33:37;98179.41;;;12.91;96.67
21236;BME280;10775;42.678;26.324;2023-04-19T09:36:05;98173.69;;;12.81;94.63
21236;BME280;10775;42.678;26.324;2023-04-19T09:38:45;98181.16;;;13.14;100.00
21236;BME280;10775;42.678;26.324;2023-04-19T09:41:11;98179.78;;;13.51;100.00
21236;BME280;10775;42.678;26.324;2023-04-19T09:43:36;98167.91;;;13.62;100.00
21236;BME280;10775;42.678;26.324;2023-04-19T09:46:01;98171.44;;;13.63;100.00
21236;BME280;10775;42.678;26.324;2023-04-19T09:48:27;98178.63;;;14.00;100.00
21236;BME280;10775;42.678;26.324;2023-04-19T09:50:59;98173.31;;;13.81;94.53
21236;BME280;10775;42.678;26.324;2023-04-19T09:53:25;98180.75;;;13.70;100.00
21236;BME280;10775;42.678;26.324;2023-04-19T09:55:51;98176.91;;;13.79;100.00
21236;BME280;10775;42.678;26.324;2023-04-19T09:58:19;98175.47;;;13.92;100.00
21236;BME280;10775;42.678;26.324;2023-04-19T10:00:45;98181.53;;;13.72;91.75
21236;BME280;10775;42.678;26.324;2023-04-19T10:03:13;98180.69;;;13.94;94.42
21236;BME280;10775;42.678;26.324;2023-04-19T10:05:40;98175.97;;;14.22;95.47
21236;BME280;10775;42.678;26.324;2023-04-19T10:08:07;98175.84;;;14.25;88.83
21236;BME280;10775;42.678;26.324;2023-04-19T10:10:33;98178.75;;;14.19;87.48
21236;BME280;10775;42.678;26.324;2023-04-19T10:13:02;98178.97;;;14.33;87.79
21236;BME280;10775;42.678;26.324;2023-04-19T10:15:29;98181.41;;;14.38;85.51
21236;BME280;10775;42.678;26.324;2023-04-19T10:17:56;98174.66;;;14.73;90.92
21236;BME280;10775;42.678;26.324;2023-04-19T10:20:31;98181.13;;;14.85;97.09
21236;BME280;10775;42.678;26.324;2023-04-19T10:22:57;98178.41;;;14.68;85.97
21236;BME280;10775;42.678;26.324;2023-04-19T10:25:29;98176.03;;;14.21;86.63
21236;BME280;10775;42.678;26.324;2023-04-19T10:27:55;98178.97;;;13.92;85.82
21236;BME280;10775;42.678;26.324;2023-04-19T10:30:21;98186.00;;;13.92;90.84
21236;BME280;10775;42.678;26.324;2023-04-19T10:32:55;98196.25;;;14.19;86.03
21236;BME280;10775;42.678;26.324;2023-04-19T10:35:23;98183.91;;;14.21;86.94
21236;BME280;10775;42.678;26.324;2023-04-19T10:43:15;98173.84;;;14.10;90.02
21236;BME280;10775;42.678;26.324;2023-04-19T10:45:42;98179.13;;;14.10;83.76
21236;BME280;10775;42.678;26.324;2023-04-19T10:51:01;98183.44;;;14.72;88.06
21236;BME280;10775;42.678;26.324;2023-04-19T10:53:50;98184.78;;;14.62;87.15
21236;BME280;10775;42.678;26.324;2023-04-19T10:56:18;98186.06;;;14.52;98.96
21236;BME280;10775;42.678;26.324;2023-04-19T11:09:45;98196.41;;;14.36;96.55
21236;BME280;10775;42.678;26.324;2023-04-19T11:12:12;98198.19;;;14.35;100.00
21236;BME280;10775;42.678;26.324;2023-04-19T11:14:41;98194.22;;;14.25;93.94
21236;BME280;10775;42.678;26.324;2023-04-19T11:17:22;98198.50;;;14.48;100.00
21236;BME280;10775;42.678;26.324;2023-04-19T11:20:06;98185.97;;;14.34;100.00
21236;BME280;10775;42.678;26.324;2023-04-19T11:22:34;98197.84;;;14.23;100.00
21236;BME280;10775;42.678;26.324;2023-04-19T11:27:35;98194.94;;;13.66;94.28
21236;BME280;10775;42.678;26.324;2023-04-19T11:30:12;98196.63;;;13.67;99.42
21236;BME280;10775;42.678;26.324;2023-04-19T11:33:01;98208.88;;;13.68;100.00
21236;BME280;10775;42.678;26.324;2023-04-19T11:35:28;98194.91;;;13.44;100.00
21236;BME280;10775;42.678;26.324;2023-04-19T11:37:55;98214.16;;;13.44;99.54
21236;BME280;10775;42.678;26.324;2023-04-19T11:40:23;98208.84;;;13.22;96.50
21236;BME280;10775;42.678;26.324;2023-04-19T11:43:00;98218.72;;;13.39;100.00
21236;BME280;10775;42.678;26.324;2023-04-19T11:45:35;98209.88;;;13.42;100.00
21236;BME280;10775;42.678;26.324;2023-04-19T11:48:03;98213.16;;;13.47;100.00
21236;BME280;10775;42.678;26.324;2023-04-19T11:50:36;98205.28;;;13.01;96.71
21236;BME280;10775;42.678;26.324;2023-04-19T11:53:20;98209.63;;;12.77;95.25
21236;BME280;10775;42.678;26.324;2023-04-19T11:55:50;98204.66;;;12.70;93.98
21236;BME280;10775;42.678;26.324;2023-04-19T11:58:26;98201.19;;;13.16;100.00
21236;BME280;10775;42.678;26.324;2023-04-19T12:00:54;98203.34;;;13.96;100.00
21236;BME280;10775;42.678;26.324;2023-04-19T12:03:21;98202.75;;;14.10;100.00
21236;BME280;10775;42.678;26.324;2023-04-19T12:05:54;98202.63;;;13.70;92.70
21236;BME280;10775;42.678;26.324;2023-04-19T12:08:36;98193.97;;;13.68;96.35
21236;BME280;10775;42.678;26.324;2023-04-19T12:11:04;98196.16;;;13.79;95.50
21236;BME280;10775;42.678;26.324;2023-04-19T12:13:31;98187.94;;;14.09;100.00
21236;BME280;10775;42.678;26.324;2023-04-19T12:15:57;98190.81;;;14.23;100.00
21236;BME280;10775;42.678;26.324;2023-04-19T12:18:23;98192.13;;;14.33;96.89
21236;BME280;10775;42.678;26.324;2023-04-19T12:20:50;98191.72;;;14.02;98.51
21236;BME280;10775;42.678;26.324;2023-04-19T12:23:19;98184.91;;;14.39;100.00
21236;BME280;10775;42.678;26.324;2023-04-19T12:25:46;98184.00;;;14.60;99.55
21236;BME280;10775;42.678;26.324;2023-04-19T12:28:13;98176.16;;;14.59;91.51
21236;BME280;10775;42.678;26.324;2023-04-19T12:30:39;98179.06;;;15.11;100.00
21236;BME280;10775;42.678;26.324;2023-04-19T12:33:06;98168.69;;;15.27;99.61
21236;BME280;10775;42.678;26.324;2023-04-19T12:35:32;98166.25;;;15.96;99.45
21236;BME280;10775;42.678;26.324;2023-04-19T12:37:59;98172.72;;;15.72;95.25
21236;BME280;10775;42.678;26.324;2023-04-19T12:40:25;98172.41;;;15.59;90.87
21236;BME280;10775;42.678;26.324;2023-04-19T12:42:52;98164.53;;;14.64;93.05
21236;BME280;10775;42.678;26.324;2023-04-19T12:45:18;98167.06;;;14.86;100.00
21236;BME280;10775;42.678;26.324;2023-04-19T12:47:45;98167.06;;;14.86;96.67
21236;BME280;10775;42.678;26.324;2023-04-19T12:50:12;98159.06;;;14.88;92.32
21236;BME280;10775;42.678;26.324;2023-04-19T12:52:38;98166.19;;;15.23;92.16
21236;BME280;10775;42.678;26.324;2023-04-19T12:55:04;98163.97;;;14.76;85.03
21236;BME280;10775;42.678;26.324;2023-04-19T12:57:30;98159.09;;;15.07;96.60
21236;BME280;10775;42.678;26.324;2023-04-19T12:59:55;98157.88;;;14.95;82.77
21236;BME280;10775;42.678;26.324;2023-04-19T13:02:21;98159.25;;;14.44;85.18